createdAt,value
2018-06-12T00:02:13.511Z,76.87
2018-06-12T00:04:41.828Z,76.53
2018-06-12T00:07:10.269Z,76.45
2018-06-12T00:09:38.621Z,77.17
2018-06-12T00:12:07.070Z,77.27
2018-06-12T00:14:35.617Z,77.25
2018-06-12T00:17:04.260Z,75.05
2018-06-12T00:19:32.585Z,76.39
2018-06-12T00:22:00.906Z,76.47
2018-06-12T00:24:29.232Z,77.59
2018-06-12T00:26:57.553Z,77.63
2018-06-12T00:29:25.931Z,77.23
2018-06-12T00:31:54.250Z,78.20
2018-06-12T00:34:22.612Z,78.88
2018-06-12T00:36:50.932Z,78.07
2018-06-12T00:39:19.293Z,76.14
2018-06-12T00:41:47.654Z,76.92
2018-06-12T00:44:16.918Z,76.54
2018-06-12T00:46:45.274Z,76.59
2018-06-12T00:49:13.641Z,77.90
2018-06-12T00:51:42.026Z,77.50
2018-06-12T00:54:10.392Z,79.08
2018-06-12T00:56:49.997Z,79.64
2018-06-12T00:59:18.319Z,79.89
2018-06-12T01:01:46.624Z,80.75
2018-06-12T01:04:15.591Z,79.93
2018-06-12T01:06:44.562Z,79.74
2018-06-12T01:09:12.929Z,80.71
2018-06-12T01:11:42.156Z,81.07
2018-06-12T01:14:11.557Z,83.29
2018-06-12T01:16:39.913Z,82.70
2018-06-12T01:19:08.226Z,83.61
2018-06-12T01:21:36.572Z,82.98
2018-06-12T01:24:05.037Z,85.09
2018-06-12T01:26:34.266Z,85.76
2018-06-12T01:29:03.465Z,85.40
2018-06-12T01:31:31.799Z,83.63
2018-06-12T01:34:00.105Z,84.38
2018-06-12T01:36:28.412Z,84.75
2018-06-12T01:38:56.752Z,85.47
2018-06-12T01:41:25.078Z,83.88
2018-06-12T01:43:53.421Z,84.51
2018-06-12T01:46:22.296Z,85.21
2018-06-12T01:48:50.640Z,83.45
2018-06-12T01:51:20.038Z,84.23
2018-06-12T01:53:49.316Z,85.16
2018-06-12T01:56:17.719Z,85.57
2018-06-12T01:58:46.065Z,84.68
2018-06-12T02:01:15.248Z,86.83
2018-06-12T02:03:43.601Z,87.29
2018-06-12T02:06:14.117Z,85.63
2018-06-12T02:08:42.570Z,87.92
2018-06-12T02:11:11.742Z,85.79
2018-06-12T02:13:40.065Z,86.78
2018-06-12T02:16:08.365Z,85.56
2018-06-12T02:18:36.664Z,88.14
2018-06-12T02:21:05.080Z,88.35
2018-06-12T02:23:33.396Z,89.22
2018-06-12T02:26:01.711Z,89.71
2018-06-12T02:28:30.068Z,90.38
2018-06-12T02:30:58.386Z,91.08
2018-06-12T02:33:26.712Z,91.43
2018-06-12T02:35:55.077Z,89.85
2018-06-12T02:38:23.446Z,90.97
2018-06-12T02:40:51.756Z,91.96
2018-06-12T02:43:20.110Z,92.55
2018-06-12T02:45:48.429Z,91.72
2018-06-12T02:48:16.737Z,93.24
2018-06-12T02:50:46.081Z,92.25
2018-06-12T02:53:15.372Z,90.36
2018-06-12T02:55:43.789Z,90.03
2018-06-12T02:58:12.126Z,90.07
2018-06-12T03:00:40.436Z,90.03
2018-06-12T03:03:08.753Z,90.22
2018-06-12T03:05:37.065Z,91.18
2018-06-12T03:08:05.571Z,89.94
2018-06-12T03:10:33.928Z,90.89
2018-06-12T03:13:02.255Z,89.81
2018-06-12T03:15:30.689Z,88.86
2018-06-12T03:17:59.114Z,89.54
2018-06-12T03:20:38.654Z,89.15
2018-06-12T03:23:07.029Z,88.61
2018-06-12T03:25:35.333Z,89.01
2018-06-12T03:28:04.126Z,88.32
2018-06-12T03:30:32.452Z,88.09
2018-06-12T03:33:01.675Z,87.97
2018-06-12T03:35:30.891Z,87.42
2018-06-12T03:37:59.314Z,86.97
2018-06-12T03:40:27.746Z,86.14
2018-06-12T03:42:56.068Z,86.26
2018-06-12T03:45:24.558Z,87.12
2018-06-12T03:47:53.745Z,86.98
2018-06-12T03:50:22.113Z,85.41
2018-06-12T03:52:51.228Z,84.90
2018-06-12T03:55:20.677Z,84.80
2018-06-12T03:57:49.925Z,84.39
2018-06-12T04:00:19.166Z,84.03
2018-06-12T04:02:48.477Z,85.14
2018-06-12T04:05:17.709Z,84.76
2018-06-12T04:07:47.158Z,83.38
2018-06-12T04:10:16.355Z,83.02
2018-06-12T04:12:45.630Z,82.91
2018-06-12T04:15:14.976Z,82.11
2018-06-12T04:17:44.344Z,80.59
2018-06-12T04:20:12.653Z,80.91
2018-06-12T04:22:41.020Z,80.13
2018-06-12T04:25:09.371Z,79.25
2018-06-12T04:27:37.916Z,78.60
2018-06-12T04:30:06.245Z,79.14
2018-06-12T04:32:34.593Z,78.74
2018-06-12T04:35:03.011Z,76.74
2018-06-12T04:37:31.328Z,76.57
2018-06-12T04:39:59.680Z,76.68
2018-06-12T04:42:27.996Z,77.06
2018-06-12T04:44:56.425Z,78.11
2018-06-12T04:47:24.948Z,74.99
2018-06-12T04:49:53.287Z,75.26
2018-06-12T04:52:21.646Z,72.89
2018-06-12T04:54:49.965Z,73.16
2018-06-12T04:57:18.331Z,73.75
2018-06-12T04:59:46.737Z,73.85
2018-06-12T05:02:15.168Z,73.67
2018-06-12T05:04:43.533Z,74.18
2018-06-12T05:07:12.906Z,73.91
2018-06-12T05:09:41.226Z,74.77
2018-06-12T05:12:10.589Z,73.54
2018-06-12T05:14:38.909Z,73.58
2018-06-12T05:17:07.342Z,73.62
2018-06-12T05:19:35.777Z,74.46
2018-06-12T05:22:04.121Z,72.25
2018-06-12T05:24:32.477Z,71.39
2018-06-12T05:27:00.789Z,70.95
2018-06-12T05:29:30.028Z,71.55
2018-06-12T05:31:58.344Z,70.29
2018-06-12T05:34:26.687Z,71.29
2018-06-12T05:36:55.005Z,70.28
2018-06-12T05:39:23.388Z,69.72
2018-06-12T05:41:51.699Z,68.98
2018-06-12T05:44:20.020Z,69.60
2018-06-12T05:46:48.441Z,70.32
2018-06-12T05:49:16.741Z,69.12
2018-06-12T05:51:45.941Z,69.40
2018-06-12T05:54:14.568Z,67.85
2018-06-12T05:56:42.888Z,67.97
2018-06-12T05:59:11.303Z,69.49
2018-06-12T06:01:39.633Z,69.05
2018-06-12T06:04:07.960Z,69.54
2018-06-12T06:06:36.417Z,69.44
2018-06-12T06:09:07.912Z,69.60
2018-06-12T06:11:36.701Z,69.00
2018-06-12T06:14:06.076Z,66.12
2018-06-12T06:16:34.452Z,67.99
2018-06-12T06:19:02.776Z,67.50
2018-06-12T06:21:31.097Z,68.57
2018-06-12T06:23:59.589Z,67.57
2018-06-12T06:26:27.908Z,66.79
2018-06-12T06:28:56.286Z,65.58
2018-06-12T06:31:25.496Z,65.14
2018-06-12T06:33:53.826Z,67.69
2018-06-12T06:36:23.106Z,66.90
2018-06-12T06:38:51.419Z,67.15
2018-06-12T06:41:19.737Z,68.41
2018-06-12T06:43:48.148Z,67.00
2018-06-12T06:46:17.125Z,67.30
2018-06-12T06:48:45.457Z,68.71
2018-06-12T06:51:13.788Z,67.69
2018-06-12T06:53:43.096Z,70.01
2018-06-12T06:56:11.397Z,68.93
2018-06-12T06:58:39.703Z,68.58
2018-06-12T07:01:08.025Z,68.04
2018-06-12T07:03:36.346Z,67.73
2018-06-12T07:06:04.776Z,66.84
2018-06-12T07:08:33.101Z,67.58
2018-06-12T07:11:01.509Z,66.46
2018-06-12T07:13:30.789Z,68.91
2018-06-12T07:16:00.118Z,67.51
2018-06-12T07:18:29.317Z,66.25
2018-06-12T07:21:00.925Z,66.79
2018-06-12T07:23:30.121Z,64.71
2018-06-12T07:25:59.797Z,67.46
2018-06-12T07:28:28.120Z,66.59
2018-06-12T07:30:56.531Z,66.63
2018-06-12T07:33:25.237Z,65.77
2018-06-12T07:35:54.628Z,68.32
2018-06-12T07:38:25.410Z,65.83
2018-06-12T07:40:53.778Z,66.34
2018-06-12T07:43:22.975Z,62.88
2018-06-12T07:45:51.353Z,67.72
2018-06-12T07:48:20.560Z,63.67
2018-06-12T07:50:48.885Z,63.87
2018-06-12T07:53:18.231Z,65.41
2018-06-12T07:55:46.607Z,65.40
2018-06-12T07:58:16.012Z,61.44
2018-06-12T08:00:44.332Z,61.32
2018-06-12T08:03:13.729Z,61.65
2018-06-12T08:05:43.093Z,62.06
2018-06-12T08:08:11.475Z,60.59
2018-06-12T08:10:39.916Z,60.19
2018-06-12T08:13:09.177Z,60.63
2018-06-12T08:15:38.404Z,59.17
2018-06-12T08:18:06.903Z,62.38
2018-06-12T08:20:35.218Z,58.55
2018-06-12T08:23:03.838Z,58.89
2018-06-12T08:25:32.158Z,57.71
2018-06-12T08:28:01.344Z,58.50
2018-06-12T08:30:35.214Z,56.29
2018-06-12T08:33:03.723Z,55.79
2018-06-12T08:35:32.234Z,57.84
2018-06-12T08:38:00.621Z,56.13
2018-06-12T08:40:28.928Z,58.19
2018-06-12T08:42:57.308Z,56.22
2018-06-12T08:45:25.645Z,60.25
2018-06-12T08:47:54.029Z,57.36
2018-06-12T08:50:22.348Z,56.20
2018-06-12T08:52:50.676Z,56.93
2018-06-12T08:55:19.851Z,55.63
2018-06-12T08:57:49.109Z,56.56
2018-06-12T09:00:17.424Z,56.30
2018-06-12T09:02:46.714Z,57.35
2018-06-12T09:05:15.049Z,54.79
2018-06-12T09:07:43.365Z,54.30
2018-06-12T09:10:11.673Z,55.28
2018-06-12T09:12:39.992Z,55.94
2018-06-12T09:15:08.316Z,55.10
2018-06-12T09:17:36.665Z,53.17
2018-06-12T09:20:05.181Z,54.18
2018-06-12T09:22:33.492Z,51.72
2018-06-12T09:25:01.897Z,52.15
2018-06-12T09:27:34.412Z,50.37
2018-06-12T09:30:02.759Z,51.84
2018-06-12T09:32:31.118Z,50.24
2018-06-12T09:34:59.442Z,50.37
2018-06-12T09:37:27.820Z,50.00
2018-06-12T09:39:56.223Z,50.95
2018-06-12T09:42:24.523Z,52.20
2018-06-12T09:44:52.840Z,52.21
2018-06-12T09:47:22.231Z,53.38
2018-06-12T09:49:50.653Z,53.79
2018-06-12T09:52:18.965Z,53.68
2018-06-12T09:54:47.322Z,52.84
2018-06-12T09:57:15.626Z,52.04
2018-06-12T09:59:44.850Z,51.10
2018-06-12T10:02:13.177Z,52.37
2018-06-12T10:04:41.592Z,54.45
2018-06-12T10:07:10.908Z,50.16
2018-06-12T10:09:39.277Z,50.03
2018-06-12T10:12:08.539Z,51.40
2018-06-12T10:14:37.784Z,54.15
2018-06-12T10:17:06.983Z,50.86
2018-06-12T10:19:35.285Z,52.67
2018-06-12T10:22:03.616Z,50.91
2018-06-12T10:24:32.945Z,51.24
2018-06-12T10:27:02.245Z,50.17
2018-06-12T10:29:30.553Z,50.12
2018-06-12T10:31:59.833Z,49.04
2018-06-12T10:34:29.081Z,49.77
2018-06-12T10:36:58.392Z,50.37
2018-06-12T10:39:27.833Z,49.31
2018-06-12T10:41:57.025Z,49.35
2018-06-12T10:44:25.352Z,50.73
2018-06-12T10:46:54.548Z,50.59
2018-06-12T10:49:23.865Z,50.99
2018-06-12T10:51:53.082Z,49.22
2018-06-12T10:54:21.676Z,49.39
2018-06-12T10:56:50.969Z,50.32
2018-06-12T10:59:19.365Z,50.48
2018-06-12T11:01:48.708Z,48.35
2018-06-12T11:04:17.069Z,49.72
2018-06-12T11:06:46.326Z,48.93
2018-06-12T11:09:14.696Z,49.37
2018-06-12T11:11:43.921Z,48.99
2018-06-12T11:14:12.233Z,50.11
2018-06-12T11:16:40.555Z,48.37
2018-06-12T11:19:08.901Z,47.59
2018-06-12T11:21:37.317Z,48.07
2018-06-12T11:24:06.601Z,48.77
2018-06-12T11:26:34.952Z,48.18
2018-06-12T11:29:04.295Z,48.19
2018-06-12T11:31:32.714Z,47.98
2018-06-12T11:34:01.901Z,50.59
2018-06-12T11:36:30.249Z,48.38
2018-06-12T11:38:59.203Z,48.40
2018-06-12T11:41:27.570Z,48.33
2018-06-12T11:43:55.889Z,51.74
2018-06-12T11:46:24.216Z,47.48
2018-06-12T11:48:52.583Z,48.23
2018-06-12T11:51:20.992Z,49.05
2018-06-12T11:53:49.348Z,47.03
2018-06-12T11:56:17.661Z,46.69
2018-06-12T11:58:46.895Z,44.71
2018-06-12T12:01:15.316Z,47.31
2018-06-12T12:03:44.654Z,48.38
2018-06-12T12:06:13.988Z,47.00
2018-06-12T12:08:42.404Z,47.22
2018-06-12T12:11:11.766Z,47.58
2018-06-12T12:13:41.181Z,47.54
2018-06-12T12:16:10.455Z,50.34
2018-06-12T12:18:38.769Z,47.42
2018-06-12T12:21:08.134Z,48.46
2018-06-12T12:23:37.336Z,43.71
2018-06-12T12:26:05.777Z,44.64
2018-06-12T12:28:34.124Z,45.61
2018-06-12T12:31:02.503Z,44.40
2018-06-12T12:33:31.745Z,44.74
2018-06-12T12:36:00.069Z,46.44
2018-06-12T12:38:28.465Z,45.58
2018-06-12T12:40:57.649Z,47.29
2018-06-12T12:43:26.040Z,46.07
2018-06-12T12:45:54.599Z,44.55
2018-06-12T12:48:23.015Z,42.95
2018-06-12T12:50:51.421Z,44.94
2018-06-12T12:53:19.772Z,44.43
2018-06-12T12:55:49.001Z,45.43
2018-06-12T12:58:17.336Z,44.88
2018-06-12T13:00:45.717Z,44.78
2018-06-12T13:03:14.126Z,43.14
2018-06-12T13:05:42.436Z,45.22
2018-06-12T13:08:10.760Z,45.17
2018-06-12T13:10:40.090Z,46.57
2018-06-12T13:13:08.436Z,44.41
2018-06-12T13:15:36.772Z,44.34
2018-06-12T13:18:06.254Z,46.48
2018-06-12T13:20:34.565Z,45.80
2018-06-12T13:23:04.040Z,46.05
2018-06-12T13:25:32.417Z,44.15
2018-06-12T13:28:00.764Z,43.77
2018-06-12T13:30:29.116Z,43.99
2018-06-12T13:32:58.321Z,42.80
2018-06-12T13:35:26.716Z,42.50
2018-06-12T13:37:55.029Z,44.21
2018-06-12T13:40:23.345Z,43.42
2018-06-12T13:42:51.650Z,44.49
2018-06-12T13:45:19.989Z,43.22
2018-06-12T13:47:48.333Z,41.71
2018-06-12T13:50:16.642Z,43.79
2018-06-12T13:52:44.989Z,41.42
2018-06-12T13:55:13.301Z,41.58
2018-06-12T13:57:41.613Z,42.81
2018-06-12T14:00:09.925Z,43.15
2018-06-12T14:02:38.268Z,41.73
2018-06-12T14:05:06.582Z,43.51
2018-06-12T14:07:35.824Z,40.78
2018-06-12T14:10:04.161Z,43.97
2018-06-12T14:12:33.404Z,45.06
2018-06-12T14:15:01.718Z,42.32
2018-06-12T14:17:30.938Z,44.10
2018-06-12T14:19:59.251Z,42.86
2018-06-12T14:22:27.570Z,42.35
2018-06-12T14:24:56.793Z,40.25
2018-06-12T14:27:26.093Z,39.93
2018-06-12T14:29:55.411Z,42.26
2018-06-12T14:32:24.736Z,39.65
2018-06-12T14:34:53.969Z,39.38
2018-06-12T14:37:23.106Z,38.91
2018-06-12T14:39:51.602Z,38.48
2018-06-12T14:42:19.940Z,38.02
2018-06-12T14:44:49.159Z,35.24
2018-06-12T14:47:18.657Z,34.39
2018-06-12T14:49:48.022Z,35.47
2018-06-12T14:52:16.339Z,34.10
2018-06-12T14:54:45.555Z,35.10
2018-06-12T14:57:14.944Z,35.42
2018-06-12T14:59:44.284Z,34.45
2018-06-12T15:02:12.624Z,35.29
2018-06-12T15:04:42.012Z,34.96
2018-06-12T15:07:10.337Z,33.07
2018-06-12T15:09:39.592Z,33.05
2018-06-12T15:12:08.848Z,33.15
2018-06-12T15:14:37.173Z,33.00
2018-06-12T15:17:05.529Z,38.34
2018-06-12T15:19:34.860Z,34.36
2018-06-12T15:22:04.200Z,34.87
2018-06-12T15:24:33.444Z,37.54
2018-06-12T15:27:01.752Z,36.36
2018-06-12T15:29:30.874Z,36.83
2018-06-12T15:32:00.196Z,34.61
2018-06-12T15:34:29.366Z,38.17
2018-06-12T15:36:57.684Z,34.45
2018-06-12T15:39:26.907Z,35.65
2018-06-12T15:41:56.133Z,37.36
2018-06-12T15:44:25.377Z,38.39
2018-06-12T15:46:54.488Z,41.08
2018-06-12T15:49:23.833Z,39.71
2018-06-12T15:51:53.182Z,44.21
2018-06-12T15:54:22.372Z,40.08
2018-06-12T15:56:50.730Z,40.54
2018-06-12T15:59:19.057Z,41.99
2018-06-12T16:01:47.445Z,43.49
2018-06-12T16:04:15.859Z,42.91
2018-06-12T16:06:44.216Z,42.84
2018-06-12T16:09:12.533Z,43.40
2018-06-12T16:11:41.073Z,42.76
2018-06-12T16:14:09.397Z,42.74
2018-06-12T16:16:37.724Z,43.48
2018-06-12T16:19:06.045Z,42.98
2018-06-12T16:21:34.358Z,43.79
2018-06-12T16:24:03.565Z,42.43
2018-06-12T16:26:31.868Z,43.49
2018-06-12T16:29:00.184Z,45.10
2018-06-12T16:31:28.623Z,45.54
2018-06-12T16:33:56.988Z,46.59
2018-06-12T16:36:25.294Z,45.99
2018-06-12T16:38:54.480Z,47.05
2018-06-12T16:41:22.846Z,49.45
2018-06-12T16:43:52.016Z,49.14
2018-06-12T16:46:20.335Z,46.92
2018-06-12T16:48:49.648Z,46.50
2018-06-12T16:51:17.956Z,45.14
2018-06-12T16:53:47.184Z,49.02
2018-06-12T16:56:15.500Z,45.14
2018-06-12T16:58:43.808Z,44.52
2018-06-12T17:01:12.185Z,45.14
2018-06-12T17:03:40.545Z,48.49
2018-06-12T17:06:08.857Z,44.26
2018-06-12T17:08:37.188Z,45.37
2018-06-12T17:11:05.580Z,46.98
2018-06-12T17:13:34.933Z,46.21
2018-06-12T17:16:03.258Z,47.14
2018-06-12T17:18:31.577Z,46.99
2018-06-12T17:20:59.904Z,48.54
2018-06-12T17:23:28.267Z,47.91
2018-06-12T17:25:56.695Z,48.46
2018-06-12T17:28:25.021Z,49.69
2018-06-12T17:30:53.349Z,48.87
2018-06-12T17:33:21.818Z,48.26
2018-06-12T17:35:50.188Z,48.88
2018-06-12T17:38:19.533Z,47.74
2018-06-12T17:40:47.888Z,48.37
2018-06-12T17:43:16.241Z,47.80
2018-06-12T17:45:45.638Z,48.51
2018-06-12T17:48:14.047Z,48.37
2018-06-12T17:50:42.405Z,49.17
2018-06-12T17:53:11.489Z,49.04
2018-06-12T17:55:40.752Z,48.52
2018-06-12T17:58:12.385Z,50.19
2018-06-12T18:00:41.067Z,50.00
2018-06-12T18:03:10.397Z,51.03
2018-06-12T18:05:39.167Z,50.87
2018-06-12T18:08:09.519Z,52.34
2018-06-12T18:10:39.101Z,52.47
2018-06-12T18:13:07.866Z,52.65
2018-06-12T18:15:36.803Z,52.40
2018-06-12T18:18:06.452Z,54.50
2018-06-12T18:20:37.342Z,54.61
2018-06-12T18:23:07.216Z,53.74
2018-06-12T18:25:35.619Z,54.32
2018-06-12T18:28:04.053Z,56.64
2018-06-12T18:36:28.438Z,58.64
2018-06-12T18:38:56.957Z,59.24
2018-06-12T18:41:25.344Z,59.87
2018-06-12T18:43:53.980Z,61.62
2018-06-12T18:46:23.268Z,61.39
2018-06-12T18:48:52.290Z,62.44
2018-06-12T18:51:20.982Z,65.50
2018-06-12T18:53:50.578Z,63.96
2018-06-12T18:56:19.530Z,65.28
2018-06-12T18:58:47.983Z,64.89
2018-06-12T19:04:19.058Z,62.08
2018-06-12T19:06:47.527Z,62.52
2018-06-12T19:09:16.582Z,62.00
2018-06-12T19:14:36.838Z,67.29
2018-06-12T19:17:05.269Z,68.88
2018-06-12T19:19:33.777Z,67.75
2018-06-12T19:22:02.105Z,70.14
2018-06-12T19:24:30.557Z,72.22
2018-06-12T19:26:59.381Z,70.71
2018-06-12T19:29:27.885Z,68.77
2018-06-12T19:31:56.282Z,70.35
2018-06-12T19:34:24.970Z,70.35
2018-06-12T19:36:53.408Z,68.14
2018-06-12T19:39:21.841Z,71.65
2018-06-12T19:41:50.216Z,67.48
2018-06-12T19:44:18.681Z,67.65
2018-06-12T19:46:48.130Z,66.29
2018-06-12T19:49:16.787Z,64.10
2018-06-12T19:51:45.129Z,65.07
2018-06-12T19:54:14.260Z,65.35
2018-06-12T19:56:42.960Z,64.09
2018-06-12T19:59:11.301Z,68.21
2018-06-12T20:01:39.641Z,64.73
2018-06-12T20:04:08.072Z,64.06
2018-06-12T20:06:36.398Z,64.92
2018-06-12T20:09:07.303Z,66.92
2018-06-12T20:11:35.864Z,68.93
2018-06-12T20:14:04.337Z,67.79
2018-06-12T20:16:32.764Z,69.72
2018-06-12T20:19:01.094Z,68.93
2018-06-12T20:21:29.493Z,70.52
2018-06-12T20:23:57.859Z,71.38
2018-06-12T20:26:26.786Z,72.86
2018-06-12T20:28:55.160Z,74.13
2018-06-12T20:31:23.536Z,73.65
2018-06-12T20:33:51.953Z,73.91
2018-06-12T20:36:20.302Z,76.04
2018-06-12T20:38:48.677Z,72.64
2018-06-12T20:41:16.990Z,69.60
2018-06-12T20:43:45.313Z,71.06
2018-06-12T20:46:13.862Z,70.92
2018-06-12T20:48:42.301Z,71.52
2018-06-12T20:51:10.732Z,68.62
2018-06-12T20:53:39.110Z,66.97
2018-06-12T20:56:07.594Z,66.89
2018-06-12T20:58:35.929Z,70.60
2018-06-12T21:01:04.301Z,67.92
2018-06-12T21:03:32.676Z,68.54
2018-06-12T21:06:01.208Z,70.06
2018-06-12T21:08:29.809Z,70.43
2018-06-12T21:10:58.181Z,70.17
2018-06-12T21:13:29.125Z,71.14
2018-06-12T21:15:57.545Z,71.26
2018-06-12T21:18:37.521Z,70.24
2018-06-12T21:21:05.924Z,71.74
2018-06-12T21:23:34.295Z,74.61
2018-06-12T21:26:02.605Z,71.00
2018-06-12T21:28:30.988Z,73.90
2018-06-12T21:30:59.485Z,73.15
2018-06-12T21:33:28.837Z,73.08
2018-06-12T21:35:57.288Z,73.50
2018-06-12T21:38:25.649Z,71.50
2018-06-12T21:40:54.101Z,72.54
2018-06-12T21:43:22.408Z,70.41
2018-06-12T21:45:50.744Z,73.10
2018-06-12T21:48:19.210Z,74.86
2018-06-12T21:50:47.640Z,73.42
2018-06-12T21:53:15.961Z,76.37
2018-06-12T21:55:44.317Z,73.33
2018-06-12T21:58:12.670Z,75.86
2018-06-12T22:00:41.595Z,77.51
2018-06-12T22:03:10.179Z,76.04
2018-06-12T22:05:38.640Z,73.65
2018-06-12T22:08:07.084Z,75.83
2018-06-12T22:10:35.405Z,73.83
2018-06-12T22:13:03.806Z,76.96
2018-06-12T22:15:32.281Z,76.24
2018-06-12T22:18:00.739Z,74.58
2018-06-12T22:20:29.060Z,76.00
2018-06-12T22:22:57.417Z,77.62
2018-06-12T22:25:25.794Z,79.03
2018-06-12T22:27:54.181Z,79.07
2018-06-12T22:30:22.513Z,77.62
2018-06-12T22:32:50.857Z,76.57
2018-06-12T22:35:19.193Z,76.22
2018-06-12T22:37:47.549Z,75.00
2018-06-12T22:40:15.868Z,75.33
2018-06-12T22:42:44.193Z,77.65
2018-06-12T22:45:12.664Z,77.06
2018-06-12T22:47:40.981Z,74.31
2018-06-12T22:50:09.289Z,77.44
2018-06-12T22:52:37.668Z,78.07
2018-06-12T22:55:06.096Z,77.25
2018-06-12T22:57:34.425Z,79.67
2018-06-12T23:00:02.894Z,79.11
2018-06-12T23:02:31.227Z,75.12
2018-06-12T23:05:04.702Z,74.70
2018-06-12T23:07:33.025Z,74.16
2018-06-12T23:10:01.346Z,74.48
2018-06-12T23:12:29.730Z,76.86
2018-06-12T23:14:58.126Z,78.67
2018-06-12T23:17:26.495Z,79.42
2018-06-12T23:21:08.125Z,76.38
2018-06-12T23:23:36.569Z,78.45
2018-06-12T23:26:04.888Z,81.12
2018-06-12T23:28:33.313Z,80.72
2018-06-12T23:31:01.625Z,78.29
2018-06-12T23:33:29.945Z,76.77
2018-06-12T23:35:58.361Z,75.74
2018-06-12T23:38:26.677Z,75.79
2018-06-12T23:40:55.023Z,75.75
2018-06-12T23:43:23.340Z,78.21
2018-06-12T23:45:51.668Z,81.32
2018-06-12T23:48:20.013Z,79.98
2018-06-12T23:50:48.945Z,79.96
2018-06-12T23:53:17.261Z,77.44
2018-06-12T23:55:45.573Z,77.23
2018-06-12T23:58:13.912Z,79.37
